KARV/ARV METAR and TAF weather

Enter ICAO airport designator
Station Type Date Time Source
KARV METAR 2019/02/23 16:55 UTC NOAA

KARV 231655Z AUTO 11008KT 1 3/4SM -SN BKN009 OVC018 M01/M03 A2995 RMK AO2 T10151033


Station Type Date Time Source
KARV Decoded METAR 2019/02/23 16:55 UTC NOAA

Minocqua/Woodruff, Lakeland Airport/Noble F. Lee Memorial Field, WI, United States (KARV) 45-56N 089-44W
Feb 23, 2019 - 11:55 AM EST / 2019.02.23 1655 UTC
Wind: from the ESE (110 degrees) at 9 MPH (8 KT):0
Visibility: 1 3/4 mile(s):0
Sky conditions: overcast
Weather: light snow
Temperature: 29.3 F (-1.5 C)
Windchill: 21 F (-6 C):1
Dew Point: 26.1 F (-3.3 C)
Relative Humidity: 87%
Pressure (altimeter): 29.95 in. Hg (1014 hPa)
ob: KARV 231655Z AUTO 11008KT 1 3/4SM -SN BKN009 OVC018 M01/M03 A2995 RMK AO2 T10151033
cycle: 17

Station Type Date Time Source
KARV TAF UTC NOAA

Error!


Example: see airport list